createdAt,value
2023-08-16T00:01:15.855Z,7.20
2023-08-16T00:03:43.164Z,7.10
2023-08-16T00:06:12.052Z,7.90
2023-08-16T00:08:39.626Z,7.60
2023-08-16T00:11:07.308Z,7.80
2023-08-16T00:13:35.165Z,8.00
2023-08-16T00:16:02.887Z,9.20
2023-08-16T00:18:31.389Z,10.10
2023-08-16T00:21:00.682Z,7.50
2023-08-16T00:23:28.617Z,6.90
2023-08-16T00:25:58.404Z,9.20
2023-08-16T00:28:25.569Z,7.30
2023-08-16T00:30:55.434Z,8.90
2023-08-16T00:33:23.626Z,8.80
2023-08-16T00:35:52.943Z,9.10
2023-08-16T00:38:20.344Z,8.00
2023-08-16T00:40:53.382Z,7.90
2023-08-16T00:43:20.913Z,7.70
2023-08-16T00:45:55.704Z,8.30
2023-08-16T00:48:24.304Z,13.90
2023-08-16T00:50:52.240Z,9.80
2023-08-16T00:53:20.577Z,7.70
2023-08-16T00:55:48.000Z,9.00
2023-08-16T00:58:16.426Z,7.60
2023-08-16T01:00:43.678Z,8.00
2023-08-16T01:03:11.672Z,7.80
2023-08-16T01:05:39.228Z,8.90
2023-08-16T01:08:06.685Z,8.30
2023-08-16T01:10:59.675Z,10.10
2023-08-16T01:13:55.684Z,8.40
2023-08-16T01:16:27.468Z,8.00
2023-08-16T01:18:55.831Z,8.40
2023-08-16T01:21:24.845Z,8.10
2023-08-16T01:24:10.202Z,9.70
2023-08-16T01:26:39.367Z,8.30
2023-08-16T01:29:08.627Z,9.40
2023-08-16T01:31:35.636Z,8.20
2023-08-16T01:34:02.963Z,8.60
2023-08-16T01:36:30.195Z,8.50
2023-08-16T01:38:58.248Z,10.10
2023-08-16T01:41:37.481Z,8.60
2023-08-16T01:44:05.757Z,8.80
2023-08-16T01:46:34.301Z,9.70
2023-08-16T01:49:02.758Z,8.10
2023-08-16T01:51:29.835Z,8.40
2023-08-16T01:53:56.846Z,9.60
2023-08-16T01:56:23.947Z,8.50
2023-08-16T01:58:51.153Z,12.20
2023-08-16T02:01:18.249Z,8.60
2023-08-16T02:03:45.450Z,9.60
2023-08-16T02:06:12.524Z,8.10
2023-08-16T02:08:39.986Z,9.80
2023-08-16T02:11:06.931Z,8.70
2023-08-16T02:13:33.952Z,9.20
2023-08-16T02:16:05.048Z,8.80
2023-08-16T02:18:33.179Z,9.60
2023-08-16T02:21:00.320Z,9.20
2023-08-16T02:23:27.398Z,8.10
2023-08-16T02:25:54.751Z,8.60
2023-08-16T02:28:23.176Z,8.10
2023-08-16T02:30:50.380Z,8.20
2023-08-16T02:33:18.108Z,8.90
2023-08-16T02:35:45.583Z,8.50
2023-08-16T02:38:12.730Z,9.30
2023-08-16T02:40:40.079Z,12.20
2023-08-16T02:43:07.445Z,9.30
2023-08-16T02:45:36.591Z,9.20
2023-08-16T02:48:04.059Z,8.90
2023-08-16T02:50:34.205Z,8.60
2023-08-16T02:53:01.186Z,8.90
2023-08-16T02:55:31.103Z,9.60
2023-08-16T02:57:58.493Z,9.60
2023-08-16T03:00:25.600Z,9.70
2023-08-16T03:02:52.526Z,10.50
2023-08-16T03:05:19.714Z,10.00
2023-08-16T03:07:46.702Z,9.00
2023-08-16T03:10:13.848Z,10.70
2023-08-16T03:12:41.847Z,9.70
2023-08-16T03:15:09.898Z,9.50
2023-08-16T03:17:37.251Z,11.10
2023-08-16T03:20:07.759Z,9.40
2023-08-16T03:22:34.982Z,9.40
2023-08-16T03:25:02.218Z,9.40
2023-08-16T03:27:29.265Z,10.40
2023-08-16T03:29:56.901Z,9.50
2023-08-16T03:32:23.899Z,9.60
2023-08-16T03:34:50.866Z,10.30
2023-08-16T03:37:19.640Z,9.40
2023-08-16T03:39:46.930Z,10.40
2023-08-16T03:42:14.765Z,10.40
2023-08-16T03:44:41.827Z,11.90
2023-08-16T03:47:08.829Z,10.00
2023-08-16T03:49:35.778Z,9.40
2023-08-16T03:52:04.691Z,11.50
2023-08-16T03:54:34.152Z,10.20
2023-08-16T03:57:01.081Z,9.60
2023-08-16T03:59:28.138Z,9.40
2023-08-16T04:01:55.333Z,11.80
2023-08-16T04:04:22.456Z,8.00
2023-08-16T04:06:49.705Z,7.20
2023-08-16T04:09:17.938Z,6.70
2023-08-16T04:11:45.214Z,7.10
2023-08-16T04:14:12.571Z,6.70
2023-08-16T04:16:39.639Z,9.20
2023-08-16T04:19:06.602Z,6.40
2023-08-16T04:21:33.672Z,6.40
2023-08-16T04:24:01.812Z,6.70
2023-08-16T04:26:29.016Z,6.90
2023-08-16T04:28:56.085Z,5.50
2023-08-16T04:31:23.325Z,5.50
2023-08-16T04:33:51.452Z,5.60
2023-08-16T04:36:18.564Z,5.80
2023-08-16T04:38:46.783Z,7.40
2023-08-16T04:41:15.777Z,6.30
2023-08-16T04:43:43.754Z,5.20
2023-08-16T04:46:10.965Z,5.00
2023-08-16T04:48:38.684Z,5.60
2023-08-16T04:51:06.489Z,5.10
2023-08-16T04:53:33.783Z,5.20
2023-08-16T04:56:01.045Z,6.80
2023-08-16T04:58:29.705Z,4.70
2023-08-16T05:00:56.902Z,5.40
2023-08-16T05:03:24.255Z,5.70
2023-08-16T05:05:57.897Z,5.90
2023-08-16T05:08:25.281Z,6.30
2023-08-16T05:10:54.021Z,7.30
2023-08-16T05:13:22.396Z,6.80
2023-08-16T05:15:49.455Z,6.00
2023-08-16T05:18:17.146Z,6.10
2023-08-16T05:20:44.232Z,6.30
2023-08-16T05:23:11.158Z,5.60
2023-08-16T05:25:39.172Z,8.10
2023-08-16T05:28:06.610Z,6.80
2023-08-16T05:30:33.565Z,7.20
2023-08-16T05:33:00.627Z,6.80
2023-08-16T05:35:27.762Z,5.60
2023-08-16T05:37:56.002Z,6.70
2023-08-16T05:40:23.103Z,5.80
2023-08-16T05:42:50.216Z,5.70
2023-08-16T05:45:17.315Z,5.50
2023-08-16T05:47:44.511Z,6.70
2023-08-16T05:50:11.616Z,6.00
2023-08-16T05:52:39.799Z,5.20
2023-08-16T05:55:08.081Z,7.00
2023-08-16T05:57:35.128Z,6.80
2023-08-16T06:00:02.265Z,8.00
2023-08-16T06:02:39.188Z,7.70
2023-08-16T06:05:07.141Z,5.40
2023-08-16T06:07:35.081Z,7.30
2023-08-16T06:10:02.246Z,5.50
2023-08-16T06:12:29.440Z,5.10
2023-08-16T06:14:56.444Z,5.60
2023-08-16T06:17:23.830Z,5.30
2023-08-16T06:19:51.638Z,5.30
2023-08-16T06:22:19.658Z,6.80
2023-08-16T06:24:46.752Z,5.40
2023-08-16T06:27:15.096Z,6.00
2023-08-16T06:29:42.575Z,5.10
2023-08-16T06:32:11.061Z,6.80
2023-08-16T06:34:39.469Z,7.20
2023-08-16T06:37:06.366Z,5.80
2023-08-16T06:39:34.499Z,6.20
2023-08-16T06:42:02.418Z,4.80
2023-08-16T06:44:49.373Z,4.50
2023-08-16T06:47:16.397Z,8.10
2023-08-16T06:49:43.468Z,4.80
2023-08-16T06:52:12.026Z,5.50
2023-08-16T06:54:39.111Z,5.10
2023-08-16T06:57:06.744Z,4.00
2023-08-16T06:59:39.671Z,4.70
2023-08-16T07:02:08.431Z,3.80
2023-08-16T07:04:35.829Z,6.00
2023-08-16T07:07:04.110Z,4.30
2023-08-16T07:09:31.654Z,4.20
2023-08-16T07:11:58.782Z,5.60
2023-08-16T07:14:25.701Z,5.30
2023-08-16T07:16:52.816Z,6.20
2023-08-16T07:19:20.564Z,8.30
2023-08-16T07:21:47.476Z,4.50
2023-08-16T07:24:14.548Z,4.60
2023-08-16T07:26:42.229Z,7.60
2023-08-16T07:29:09.891Z,5.60
2023-08-16T07:31:37.749Z,4.40
2023-08-16T07:34:05.428Z,4.00
2023-08-16T07:36:34.690Z,5.40
2023-08-16T07:39:02.292Z,6.60
2023-08-16T07:41:29.414Z,5.60
2023-08-16T07:43:57.940Z,4.60
2023-08-16T07:46:25.732Z,3.40
2023-08-16T07:48:52.686Z,3.90
2023-08-16T07:51:19.715Z,6.90
2023-08-16T07:53:46.777Z,6.50
2023-08-16T07:56:13.819Z,3.20
2023-08-16T07:58:40.811Z,5.20
2023-08-16T08:01:09.174Z,4.10
2023-08-16T08:03:38.039Z,4.80
2023-08-16T08:06:06.039Z,4.90
2023-08-16T08:08:32.979Z,2.80
2023-08-16T08:11:00.046Z,4.00
2023-08-16T08:13:27.327Z,4.50
2023-08-16T08:15:55.722Z,3.70
2023-08-16T08:18:22.842Z,6.10
2023-08-16T08:20:50.053Z,4.60
2023-08-16T08:23:17.156Z,5.00
2023-08-16T08:25:45.713Z,4.20
2023-08-16T08:28:13.127Z,4.50
2023-08-16T08:30:43.160Z,4.40
2023-08-16T08:33:10.643Z,2.70
2023-08-16T08:35:39.113Z,5.40
2023-08-16T08:38:11.182Z,2.90
2023-08-16T08:40:38.394Z,5.20
2023-08-16T08:43:07.435Z,3.40
2023-08-16T08:45:36.691Z,2.50
2023-08-16T08:48:06.804Z,5.70
2023-08-16T08:50:39.467Z,2.80
2023-08-16T08:53:06.594Z,3.90
2023-08-16T08:55:34.751Z,5.00
2023-08-16T08:58:03.965Z,4.90
2023-08-16T09:00:37.849Z,4.60
2023-08-16T09:03:13.546Z,5.00
2023-08-16T09:05:41.581Z,7.20
2023-08-16T09:08:11.090Z,4.40
2023-08-16T09:10:40.131Z,4.40
2023-08-16T09:13:15.649Z,4.90
2023-08-16T09:15:43.443Z,6.40
2023-08-16T09:18:24.759Z,21.10
2023-08-16T09:20:54.099Z,5.00
2023-08-16T09:23:21.323Z,8.60
2023-08-16T09:25:51.296Z,7.30
2023-08-16T09:28:19.025Z,6.30
2023-08-16T09:31:06.017Z,4.10
2023-08-16T09:33:39.648Z,4.70
2023-08-16T09:36:07.457Z,6.60
2023-08-16T09:38:41.268Z,5.30
2023-08-16T09:41:19.989Z,6.40
2023-08-16T09:43:47.047Z,4.60
2023-08-16T09:49:24.993Z,4.00
2023-08-16T09:54:24.861Z,3.60
2023-08-16T10:02:13.276Z,8.50
2023-08-16T10:07:14.021Z,6.40
2023-08-16T10:09:46.300Z,5.40
2023-08-16T10:12:14.872Z,7.00
2023-08-16T10:14:42.312Z,6.70
2023-08-16T10:17:13.311Z,4.40
2023-08-16T10:19:45.417Z,3.60
2023-08-16T10:24:55.727Z,7.70
2023-08-16T10:27:24.422Z,4.10
2023-08-16T10:30:07.314Z,5.40
2023-08-16T10:32:41.635Z,7.60
2023-08-16T10:35:10.461Z,7.10
2023-08-16T10:37:40.303Z,6.40
2023-08-16T10:42:59.739Z,4.90
2023-08-16T10:48:12.966Z,8.10
2023-08-16T10:50:41.030Z,7.70
2023-08-16T10:53:09.211Z,5.80
2023-08-16T10:55:36.811Z,4.10
2023-08-16T10:58:04.928Z,5.30
2023-08-16T11:00:34.160Z,5.80
2023-08-16T11:03:05.970Z,5.00
2023-08-16T11:05:35.373Z,6.80
2023-08-16T11:08:03.913Z,5.20
2023-08-16T11:10:38.605Z,5.20
2023-08-16T11:13:12.188Z,4.40
2023-08-16T11:15:41.916Z,4.90
2023-08-16T11:18:11.662Z,5.00
2023-08-16T11:20:42.752Z,6.10
2023-08-16T11:23:09.943Z,4.90
2023-08-16T11:25:36.921Z,5.80
2023-08-16T11:28:05.076Z,4.50
2023-08-16T11:30:32.975Z,4.70
2023-08-16T11:33:01.678Z,3.80
2023-08-16T11:35:28.959Z,4.50
2023-08-16T11:37:56.010Z,5.30
2023-08-16T11:40:25.929Z,6.10
2023-08-16T11:42:53.152Z,5.60
2023-08-16T11:45:22.113Z,5.70
2023-08-16T11:47:53.459Z,5.40
2023-08-16T11:50:21.974Z,5.40
2023-08-16T11:52:59.481Z,4.40
2023-08-16T11:55:32.876Z,4.80
2023-08-16T11:58:10.346Z,5.80
2023-08-16T12:00:38.095Z,5.80
2023-08-16T12:03:10.528Z,6.40
2023-08-16T12:05:40.115Z,5.90
2023-08-16T12:08:10.448Z,4.20
2023-08-16T12:10:39.249Z,3.80
2023-08-16T12:13:14.527Z,4.40
2023-08-16T12:15:43.188Z,4.40
2023-08-16T12:18:10.281Z,4.10
2023-08-16T12:20:37.488Z,3.20
2023-08-16T12:23:10.043Z,3.50
2023-08-16T12:25:37.125Z,4.80
2023-08-16T12:28:05.495Z,5.00
2023-08-16T12:30:32.545Z,4.70
2023-08-16T12:32:59.463Z,3.80
2023-08-16T12:35:26.592Z,2.90
2023-08-16T12:40:21.407Z,4.70
2023-08-16T12:42:48.359Z,3.10
2023-08-16T12:45:15.426Z,4.20
2023-08-16T12:47:42.440Z,4.40
2023-08-16T12:50:09.516Z,4.20
2023-08-16T12:52:36.492Z,4.40
2023-08-16T12:55:03.523Z,3.70
2023-08-16T12:57:38.247Z,4.60
2023-08-16T13:00:13.435Z,4.50
2023-08-16T13:02:40.995Z,4.20
2023-08-16T13:05:12.136Z,5.40
2023-08-16T13:10:23.167Z,4.90
2023-08-16T13:12:56.529Z,3.90
2023-08-16T13:15:39.937Z,3.60
2023-08-16T13:23:11.739Z,4.60
2023-08-16T13:25:58.443Z,4.80
2023-08-16T13:28:44.517Z,3.60
2023-08-16T13:31:22.485Z,4.50
2023-08-16T13:36:42.801Z,3.10
2023-08-16T13:39:27.275Z,2.80
2023-08-16T13:46:57.907Z,4.50
2023-08-16T13:49:24.984Z,3.00
2023-08-16T13:51:52.135Z,4.90
2023-08-16T13:54:19.635Z,3.90
2023-08-16T13:56:49.353Z,3.40
2023-08-16T13:59:17.216Z,2.90
2023-08-16T14:01:44.841Z,4.50
2023-08-16T14:04:12.198Z,3.40
2023-08-16T14:06:39.961Z,3.70
2023-08-16T14:09:06.905Z,4.10
2023-08-16T14:11:33.871Z,3.00
2023-08-16T14:14:01.218Z,4.00
2023-08-16T14:16:28.231Z,3.60
2023-08-16T14:18:57.727Z,3.30
2023-08-16T14:21:24.791Z,4.10
2023-08-16T14:23:56.047Z,3.50
2023-08-16T14:26:23.426Z,4.20
2023-08-16T14:28:50.435Z,4.30
2023-08-16T14:31:17.351Z,4.50
2023-08-16T14:33:44.235Z,3.60
2023-08-16T14:36:11.245Z,3.90
2023-08-16T14:38:46.796Z,4.60
2023-08-16T14:41:22.039Z,4.10
2023-08-16T14:43:49.009Z,5.00
2023-08-16T14:46:17.060Z,4.10
2023-08-16T14:48:44.280Z,3.70
2023-08-16T14:51:11.782Z,5.40
2023-08-16T14:53:38.728Z,3.40
2023-08-16T14:56:05.640Z,4.30
2023-08-16T14:58:32.833Z,3.90
2023-08-16T15:00:59.736Z,4.30
2023-08-16T15:03:26.666Z,3.10
2023-08-16T15:05:53.659Z,3.70
2023-08-16T15:08:20.736Z,3.00
2023-08-16T15:10:52.052Z,4.00
2023-08-16T15:13:20.070Z,3.70
2023-08-16T15:15:47.066Z,3.60
2023-08-16T15:18:14.033Z,3.20
2023-08-16T15:20:41.948Z,2.90
2023-08-16T15:23:08.912Z,2.70
2023-08-16T15:25:36.640Z,5.10
2023-08-16T15:28:03.835Z,2.40
2023-08-16T15:30:31.287Z,3.00
2023-08-16T15:32:58.292Z,2.80
2023-08-16T15:35:25.706Z,3.00
2023-08-16T15:37:52.822Z,4.50
2023-08-16T15:40:20.010Z,2.40
2023-08-16T15:42:47.127Z,2.40
2023-08-16T15:45:14.319Z,3.00
2023-08-16T15:47:41.502Z,3.10
2023-08-16T15:50:10.379Z,3.40
2023-08-16T15:52:37.282Z,2.70
2023-08-16T15:55:06.704Z,3.10
2023-08-16T15:57:37.905Z,2.60
2023-08-16T16:00:05.679Z,3.60
2023-08-16T16:02:41.020Z,2.20
2023-08-16T16:05:08.547Z,2.50
2023-08-16T16:07:35.718Z,2.80
2023-08-16T16:10:02.766Z,3.20
2023-08-16T16:12:29.818Z,3.60
2023-08-16T16:14:56.904Z,2.40
2023-08-16T16:17:27.081Z,2.80
2023-08-16T16:19:54.982Z,3.10
2023-08-16T16:22:22.035Z,2.50
2023-08-16T16:24:49.178Z,2.60
2023-08-16T16:27:16.341Z,3.80
2023-08-16T16:29:43.491Z,4.00
2023-08-16T16:32:10.756Z,2.20
2023-08-16T16:34:37.855Z,2.60
2023-08-16T16:37:05.277Z,2.20
2023-08-16T16:39:32.318Z,2.70
2023-08-16T16:42:01.953Z,2.60
2023-08-16T16:44:29.678Z,2.50
2023-08-16T16:46:56.857Z,3.00
2023-08-16T16:49:24.706Z,2.30
2023-08-16T16:51:53.115Z,2.80
2023-08-16T16:54:20.275Z,2.00
2023-08-16T16:56:47.320Z,3.50
2023-08-16T16:59:14.341Z,2.50
2023-08-16T17:01:41.360Z,3.70
2023-08-16T17:04:08.864Z,2.50
2023-08-16T17:06:36.054Z,2.30
2023-08-16T17:09:03.000Z,2.80
2023-08-16T17:11:30.050Z,2.30
2023-08-16T17:13:57.225Z,1.90
2023-08-16T17:16:24.501Z,1.90
2023-08-16T17:18:51.937Z,2.80
2023-08-16T17:21:18.852Z,2.80
2023-08-16T17:23:46.836Z,2.30
2023-08-16T17:26:15.360Z,2.00
2023-08-16T17:28:42.329Z,2.30
2023-08-16T17:31:12.029Z,2.00
2023-08-16T17:33:39.905Z,3.00
2023-08-16T17:36:14.659Z,3.10
2023-08-16T17:38:44.210Z,2.30
2023-08-16T17:41:15.374Z,2.60
2023-08-16T17:43:42.514Z,3.20
2023-08-16T17:46:09.447Z,2.30
2023-08-16T17:48:37.403Z,2.60
2023-08-16T17:51:04.548Z,4.40
2023-08-16T17:53:31.977Z,3.10
2023-08-16T17:55:59.135Z,3.20
2023-08-16T17:58:28.411Z,3.50
2023-08-16T18:00:57.365Z,3.80
2023-08-16T18:03:24.978Z,3.10
2023-08-16T18:05:52.153Z,4.10
2023-08-16T18:08:19.189Z,3.50
2023-08-16T18:10:46.347Z,2.80
2023-08-16T18:13:13.339Z,3.70
2023-08-16T18:15:40.450Z,3.20
2023-08-16T18:18:07.445Z,4.00
2023-08-16T18:20:35.201Z,4.00
2023-08-16T18:23:03.043Z,4.50
2023-08-16T18:25:33.004Z,3.90
2023-08-16T18:28:00.032Z,4.40
2023-08-16T18:30:28.001Z,4.00
2023-08-16T18:32:57.170Z,4.70
2023-08-16T18:35:25.192Z,3.90
2023-08-16T18:37:52.132Z,3.40
2023-08-16T18:40:19.381Z,4.30
2023-08-16T18:42:47.576Z,3.00
2023-08-16T18:45:14.470Z,4.00
2023-08-16T18:47:41.387Z,3.80
2023-08-16T18:50:08.818Z,5.60
2023-08-16T18:52:35.781Z,3.90
2023-08-16T18:55:02.773Z,5.10
2023-08-16T18:57:30.128Z,5.70
2023-08-16T18:59:56.995Z,5.90
2023-08-16T19:02:24.324Z,3.70
2023-08-16T19:04:51.316Z,5.10
2023-08-16T19:07:18.237Z,3.90
2023-08-16T19:09:45.196Z,3.20
2023-08-16T19:12:12.707Z,2.80
2023-08-16T19:14:39.710Z,3.60
2023-08-16T19:17:06.691Z,2.90
2023-08-16T19:19:33.607Z,2.90
2023-08-16T19:22:00.612Z,2.30
2023-08-16T19:24:27.679Z,2.80
2023-08-16T19:26:54.732Z,3.20
2023-08-16T19:29:21.878Z,3.40
2023-08-16T19:31:48.837Z,2.70
2023-08-16T19:34:15.731Z,2.50
2023-08-16T19:36:44.170Z,3.60
2023-08-16T19:39:11.777Z,3.90
2023-08-16T19:41:38.783Z,2.00
2023-08-16T19:44:05.945Z,1.90
2023-08-16T19:46:33.047Z,2.90
2023-08-16T19:49:01.603Z,2.90
2023-08-16T19:51:28.837Z,3.40
2023-08-16T19:53:56.016Z,1.70
2023-08-16T19:56:23.156Z,3.40
2023-08-16T19:58:50.405Z,1.80
2023-08-16T20:01:21.621Z,2.90
2023-08-16T20:03:49.042Z,1.90
2023-08-16T20:06:16.265Z,2.10
2023-08-16T20:08:43.535Z,2.10
2023-08-16T20:11:11.212Z,2.50
2023-08-16T20:13:38.479Z,2.20
2023-08-16T20:16:06.168Z,1.80
2023-08-16T20:18:33.175Z,2.00
2023-08-16T20:21:00.331Z,2.50
2023-08-16T20:23:27.382Z,2.00
2023-08-16T20:25:54.279Z,1.90
2023-08-16T20:28:21.212Z,3.20
2023-08-16T20:30:48.093Z,1.70
2023-08-16T20:33:17.039Z,2.30
2023-08-16T20:35:43.923Z,1.50
2023-08-16T20:38:10.950Z,1.40
2023-08-16T20:40:37.839Z,2.70
2023-08-16T20:43:05.244Z,1.80
2023-08-16T20:45:32.171Z,4.20
2023-08-16T20:47:59.294Z,3.80
2023-08-16T20:50:26.516Z,1.70
2023-08-16T20:52:53.558Z,3.70
2023-08-16T20:55:21.025Z,1.90
2023-08-16T20:57:47.913Z,2.00
2023-08-16T21:00:15.594Z,3.20
2023-08-16T21:02:42.562Z,3.00
2023-08-16T21:05:10.031Z,2.10
2023-08-16T21:07:36.997Z,2.30
2023-08-16T21:10:04.577Z,2.20
2023-08-16T21:12:31.637Z,1.40
2023-08-16T21:14:58.815Z,2.50
2023-08-16T21:17:26.049Z,2.90
2023-08-16T21:19:53.443Z,3.80
2023-08-16T21:22:20.490Z,3.00
2023-08-16T21:24:47.443Z,1.80
2023-08-16T21:27:14.494Z,1.60
2023-08-16T21:29:42.159Z,3.10
2023-08-16T21:32:09.622Z,2.10
2023-08-16T21:34:36.581Z,1.90
2023-08-16T21:37:03.545Z,2.00
2023-08-16T21:39:30.542Z,2.80
2023-08-16T21:41:57.741Z,2.40
2023-08-16T21:44:24.752Z,2.30
2023-08-16T21:46:51.864Z,2.00
2023-08-16T21:49:18.856Z,1.30
2023-08-16T21:51:45.768Z,1.30
2023-08-16T21:54:12.705Z,2.20
2023-08-16T21:56:39.659Z,2.00
2023-08-16T21:59:06.603Z,1.90
2023-08-16T22:01:33.561Z,1.10
2023-08-16T22:04:00.575Z,1.30
2023-08-16T22:06:27.674Z,1.50
2023-08-16T22:08:54.619Z,1.80
2023-08-16T22:11:21.533Z,1.30
2023-08-16T22:13:48.482Z,2.00
2023-08-16T22:16:15.400Z,1.60
2023-08-16T22:18:42.364Z,1.80
2023-08-16T22:21:10.888Z,3.30
2023-08-16T22:23:38.593Z,1.40
2023-08-16T22:26:07.871Z,1.60
2023-08-16T22:28:35.199Z,2.10
2023-08-16T22:31:02.343Z,1.60
2023-08-16T22:33:29.472Z,2.70
2023-08-16T22:35:56.354Z,2.10
2023-08-16T22:38:23.338Z,1.10
2023-08-16T22:40:50.211Z,1.70
2023-08-16T22:43:17.197Z,2.80
2023-08-16T22:45:44.189Z,1.60
2023-08-16T22:48:11.180Z,3.10
2023-08-16T22:50:38.392Z,1.40
2023-08-16T22:53:07.157Z,1.30
2023-08-16T22:55:34.414Z,1.40
2023-08-16T22:58:01.574Z,3.40
2023-08-16T23:00:28.603Z,1.50
2023-08-16T23:02:55.723Z,2.80
2023-08-16T23:05:22.804Z,1.70
2023-08-16T23:07:49.750Z,2.50
2023-08-16T23:10:16.872Z,2.90
2023-08-16T23:12:44.209Z,1.50
2023-08-16T23:15:11.513Z,1.80
2023-08-16T23:17:38.528Z,2.20
2023-08-16T23:20:07.655Z,2.20
2023-08-16T23:22:39.084Z,1.40
2023-08-16T23:25:08.105Z,3.40
2023-08-16T23:27:36.158Z,1.10
2023-08-16T23:30:05.156Z,2.00
2023-08-16T23:32:33.252Z,1.30
2023-08-16T23:35:00.436Z,3.20
2023-08-16T23:37:28.079Z,1.40
2023-08-16T23:39:55.611Z,1.30
2023-08-16T23:42:26.075Z,2.80
2023-08-16T23:44:53.085Z,2.20
2023-08-16T23:47:20.115Z,1.00
2023-08-16T23:49:47.188Z,3.30
2023-08-16T23:52:14.354Z,3.10
2023-08-16T23:54:41.409Z,3.10
2023-08-16T23:57:08.458Z,2.20
2023-08-16T23:59:35.606Z,1.90
